sensor_id;sensor_type;location;lat;lon;timestamp;pressure;altitude;pressure_sealevel;temperature;humidity
42601;BME280;28229;48.856;9.088;2024-03-23T00:54:02;97213.06;;;9.22;74.87
42601;BME280;28229;48.856;9.088;2024-03-23T00:56:29;97208.47;;;9.18;75.12
42601;BME280;28229;48.856;9.088;2024-03-23T00:58:55;97214.28;;;9.20;74.65
42601;BME280;28229;48.856;9.088;2024-03-23T01:01:22;97215.13;;;9.20;75.35
42601;BME280;28229;48.856;9.088;2024-03-23T01:03:48;97206.91;;;9.17;75.67
42601;BME280;28229;48.856;9.088;2024-03-23T01:06:14;97207.47;;;9.19;75.61
42601;BME280;28229;48.856;9.088;2024-03-23T01:08:40;97202.41;;;9.05;76.65
42601;BME280;28229;48.856;9.088;2024-03-23T01:11:06;97194.78;;;9.15;76.29
42601;BME280;28229;48.856;9.088;2024-03-23T01:13:32;97183.72;;;9.13;76.39
42601;BME280;28229;48.856;9.088;2024-03-23T01:15:58;97169.94;;;9.18;75.81
42601;BME280;28229;48.856;9.088;2024-03-23T01:18:25;97164.44;;;9.08;76.43
42601;BME280;28229;48.856;9.088;2024-03-23T01:20:52;97167.59;;;8.98;77.04
42601;BME280;28229;48.856;9.088;2024-03-23T01:23:18;97168.66;;;8.97;77.44
42601;BME280;28229;48.856;9.088;2024-03-23T01:25:51;97166.25;;;8.95;77.58
42601;BME280;28229;48.856;9.088;2024-03-23T01:28:18;97165.19;;;8.96;77.83
42601;BME280;28229;48.856;9.088;2024-03-23T01:30:44;97171.50;;;8.95;77.77
42601;BME280;28229;48.856;9.088;2024-03-23T01:33:10;97161.78;;;8.96;78.15
42601;BME280;28229;48.856;9.088;2024-03-23T01:35:36;97147.50;;;8.80;78.71
42601;BME280;28229;48.856;9.088;2024-03-23T01:38:02;97149.91;;;8.82;78.67
42601;BME280;28229;48.856;9.088;2024-03-23T01:40:29;97144.56;;;8.88;78.81
42601;BME280;28229;48.856;9.088;2024-03-23T01:43:00;97138.97;;;8.85;78.91
42601;BME280;28229;48.856;9.088;2024-03-23T01:45:28;97134.28;;;8.87;79.10
42601;BME280;28229;48.856;9.088;2024-03-23T01:47:54;97134.06;;;8.88;79.46
42601;BME280;28229;48.856;9.088;2024-03-23T01:50:20;97126.66;;;8.97;79.23
42601;BME280;28229;48.856;9.088;2024-03-23T01:52:48;97120.97;;;9.00;79.13
42601;BME280;28229;48.856;9.088;2024-03-23T01:55:14;97114.81;;;9.06;78.90
42601;BME280;28229;48.856;9.088;2024-03-23T01:57:40;97119.03;;;9.07;79.07
42601;BME280;28229;48.856;9.088;2024-03-23T02:00:07;97109.81;;;9.17;78.81
42601;BME280;28229;48.856;9.088;2024-03-23T02:02:43;97103.06;;;9.21;78.80
42601;BME280;28229;48.856;9.088;2024-03-23T02:05:13;97103.19;;;9.26;78.67
42601;BME280;28229;48.856;9.088;2024-03-23T02:07:41;97107.38;;;9.27;78.80
42601;BME280;28229;48.856;9.088;2024-03-23T02:10:07;97104.75;;;9.27;78.91
42601;BME280;28229;48.856;9.088;2024-03-23T02:12:36;97100.00;;;9.24;78.93
42601;BME280;28229;48.856;9.088;2024-03-23T02:15:03;97105.69;;;9.21;79.02
42601;BME280;28229;48.856;9.088;2024-03-23T02:17:31;97102.84;;;9.22;79.28
42601;BME280;28229;48.856;9.088;2024-03-23T02:19:58;97102.28;;;9.20;79.43
42601;BME280;28229;48.856;9.088;2024-03-23T02:22:24;97091.22;;;9.18;79.69
42601;BME280;28229;48.856;9.088;2024-03-23T02:24:50;97089.25;;;9.13;80.07
42601;BME280;28229;48.856;9.088;2024-03-23T02:27:17;97079.44;;;9.09;80.68
42601;BME280;28229;48.856;9.088;2024-03-23T02:29:43;97086.88;;;9.00;80.97
42601;BME280;28229;48.856;9.088;2024-03-23T02:32:09;97078.63;;;8.96;81.44
42601;BME280;28229;48.856;9.088;2024-03-23T02:34:35;97084.69;;;8.97;81.94
42601;BME280;28229;48.856;9.088;2024-03-23T02:37:02;97075.91;;;8.91;82.08
42601;BME280;28229;48.856;9.088;2024-03-23T02:39:28;97067.44;;;8.89;82.50
42601;BME280;28229;48.856;9.088;2024-03-23T02:41:54;97071.34;;;8.87;83.14
42601;BME280;28229;48.856;9.088;2024-03-23T02:44:20;97074.97;;;8.86;83.44
42601;BME280;28229;48.856;9.088;2024-03-23T02:46:46;97072.59;;;8.72;83.51
42601;BME280;28229;48.856;9.088;2024-03-23T02:49:12;97063.00;;;8.66;84.89
42601;BME280;28229;48.856;9.088;2024-03-23T02:51:39;97074.19;;;8.73;84.66
42601;BME280;28229;48.856;9.088;2024-03-23T02:54:05;97062.75;;;8.68;85.47
42601;BME280;28229;48.856;9.088;2024-03-23T02:56:32;97073.03;;;8.69;86.23
42601;BME280;28229;48.856;9.088;2024-03-23T02:58:58;97065.72;;;8.71;86.20
42601;BME280;28229;48.856;9.088;2024-03-23T03:01:24;97065.72;;;8.71;85.91
42601;BME280;28229;48.856;9.088;2024-03-23T03:03:51;97067.13;;;8.74;86.12
42601;BME280;28229;48.856;9.088;2024-03-23T03:06:27;97059.25;;;8.74;86.30
42601;BME280;28229;48.856;9.088;2024-03-23T03:08:53;97051.69;;;8.66;86.85
42601;BME280;28229;48.856;9.088;2024-03-23T03:11:19;97050.91;;;8.65;86.35
42601;BME280;28229;48.856;9.088;2024-03-23T03:13:46;97041.56;;;8.69;86.42
42601;BME280;28229;48.856;9.088;2024-03-23T03:16:12;97042.47;;;8.63;86.60
42601;BME280;28229;48.856;9.088;2024-03-23T03:18:39;97039.81;;;8.51;87.84
42601;BME280;28229;48.856;9.088;2024-03-23T03:21:06;97047.47;;;8.53;88.23
42601;BME280;28229;48.856;9.088;2024-03-23T03:23:39;97035.84;;;8.49;88.51
42601;BME280;28229;48.856;9.088;2024-03-23T03:26:06;97031.53;;;8.54;88.00
42601;BME280;28229;48.856;9.088;2024-03-23T03:28:32;97032.88;;;8.45;88.82
42601;BME280;28229;48.856;9.088;2024-03-23T03:30:59;97030.47;;;8.44;88.60
42601;BME280;28229;48.856;9.088;2024-03-23T03:33:26;97032.31;;;8.43;88.60
42601;BME280;28229;48.856;9.088;2024-03-23T03:35:53;97035.13;;;8.42;88.96
42601;BME280;28229;48.856;9.088;2024-03-23T03:38:19;97040.59;;;8.40;89.65
42601;BME280;28229;48.856;9.088;2024-03-23T03:40:45;97029.19;;;8.34;89.99
42601;BME280;28229;48.856;9.088;2024-03-23T03:43:12;97024.81;;;8.28;90.73
42601;BME280;28229;48.856;9.088;2024-03-23T03:45:38;97020.72;;;8.32;90.39
42601;BME280;28229;48.856;9.088;2024-03-23T03:48:05;97013.91;;;8.31;90.47
42601;BME280;28229;48.856;9.088;2024-03-23T03:50:31;97001.03;;;8.30;90.85
42601;BME280;28229;48.856;9.088;2024-03-23T03:52:57;96987.00;;;8.24;91.28
42601;BME280;28229;48.856;9.088;2024-03-23T03:55:23;96987.88;;;8.18;91.41
42601;BME280;28229;48.856;9.088;2024-03-23T03:57:49;96983.81;;;8.22;91.60
42601;BME280;28229;48.856;9.088;2024-03-23T04:00:16;96983.00;;;8.22;91.46
42601;BME280;28229;48.856;9.088;2024-03-23T04:02:42;96972.63;;;8.15;92.60
42601;BME280;28229;48.856;9.088;2024-03-23T04:05:08;96965.78;;;8.14;92.62
42601;BME280;28229;48.856;9.088;2024-03-23T04:07:34;96961.13;;;8.16;92.60
42601;BME280;28229;48.856;9.088;2024-03-23T04:10:00;96953.81;;;8.18;92.36
42601;BME280;28229;48.856;9.088;2024-03-23T04:12:26;96946.44;;;8.15;92.41
42601;BME280;28229;48.856;9.088;2024-03-23T04:14:53;96954.06;;;8.16;92.77
42601;BME280;28229;48.856;9.088;2024-03-23T04:17:19;96972.63;;;8.15;93.30
42601;BME280;28229;48.856;9.088;2024-03-23T04:19:46;96997.94;;;8.21;94.12
42601;BME280;28229;48.856;9.088;2024-03-23T04:22:12;97011.94;;;8.27;98.17
42601;BME280;28229;48.856;9.088;2024-03-23T04:24:38;97030.06;;;8.28;100.00
42601;BME280;28229;48.856;9.088;2024-03-23T04:27:04;97036.09;;;8.29;100.00
42601;BME280;28229;48.856;9.088;2024-03-23T04:29:30;97025.09;;;8.38;100.00
42601;BME280;28229;48.856;9.088;2024-03-23T04:31:56;97021.00;;;8.43;100.00
42601;BME280;28229;48.856;9.088;2024-03-23T04:34:23;97022.75;;;8.49;100.00
42601;BME280;28229;48.856;9.088;2024-03-23T04:36:49;97017.03;;;8.52;100.00
42601;BME280;28229;48.856;9.088;2024-03-23T04:39:15;97013.28;;;8.60;100.00
42601;BME280;28229;48.856;9.088;2024-03-23T04:41:42;97013.41;;;8.65;100.00
42601;BME280;28229;48.856;9.088;2024-03-23T04:44:08;97015.34;;;8.69;100.00
42601;BME280;28229;48.856;9.088;2024-03-23T04:46:34;97008.84;;;8.72;100.00
42601;BME280;28229;48.856;9.088;2024-03-23T04:49:00;97016.50;;;8.73;100.00
42601;BME280;28229;48.856;9.088;2024-03-23T04:51:26;97013.19;;;8.78;100.00
42601;BME280;28229;48.856;9.088;2024-03-23T04:53:52;97008.28;;;8.82;100.00
42601;BME280;28229;48.856;9.088;2024-03-23T04:56:18;97020.38;;;8.83;100.00
42601;BME280;28229;48.856;9.088;2024-03-23T04:58:45;97002.59;;;8.85;100.00
42601;BME280;28229;48.856;9.088;2024-03-23T05:01:11;97015.00;;;8.89;100.00
42601;BME280;28229;48.856;9.088;2024-03-23T05:03:37;97007.59;;;8.86;100.00
42601;BME280;28229;48.856;9.088;2024-03-23T05:06:04;97006.22;;;8.84;100.00
42601;BME280;28229;48.856;9.088;2024-03-23T05:08:31;97000.19;;;8.83;100.00
42601;BME280;28229;48.856;9.088;2024-03-23T05:10:57;97005.09;;;8.80;100.00
42601;BME280;28229;48.856;9.088;2024-03-23T05:13:23;97023.88;;;8.76;100.00
42601;BME280;28229;48.856;9.088;2024-03-23T05:15:53;97019.22;;;8.79;100.00
42601;BME280;28229;48.856;9.088;2024-03-23T05:18:21;97036.56;;;8.80;100.00
42601;BME280;28229;48.856;9.088;2024-03-23T05:20:47;97028.91;;;8.78;100.00
42601;BME280;28229;48.856;9.088;2024-03-23T05:23:13;97034.75;;;8.68;100.00
42601;BME280;28229;48.856;9.088;2024-03-23T05:25:39;97035.06;;;8.72;100.00
42601;BME280;28229;48.856;9.088;2024-03-23T05:28:06;97048.97;;;8.72;100.00
42601;BME280;28229;48.856;9.088;2024-03-23T05:30:32;97034.25;;;8.71;100.00
42601;BME280;28229;48.856;9.088;2024-03-23T05:32:59;97036.88;;;8.71;100.00
42601;BME280;28229;48.856;9.088;2024-03-23T05:35:25;97033.03;;;8.74;100.00
42601;BME280;28229;48.856;9.088;2024-03-23T05:37:51;97054.22;;;8.72;100.00
42601;BME280;28229;48.856;9.088;2024-03-23T05:40:17;97050.59;;;8.73;100.00
42601;BME280;28229;48.856;9.088;2024-03-23T05:42:43;97051.59;;;8.72;100.00
42601;BME280;28229;48.856;9.088;2024-03-23T05:45:10;97065.63;;;8.66;100.00
42601;BME280;28229;48.856;9.088;2024-03-23T05:47:37;97089.66;;;8.63;100.00
42601;BME280;28229;48.856;9.088;2024-03-23T05:50:04;97070.94;;;8.48;100.00
42601;BME280;28229;48.856;9.088;2024-03-23T05:52:30;97077.31;;;8.52;100.00
42601;BME280;28229;48.856;9.088;2024-03-23T05:54:56;97078.81;;;8.48;100.00
42601;BME280;28229;48.856;9.088;2024-03-23T05:57:22;97089.72;;;8.45;100.00
42601;BME280;28229;48.856;9.088;2024-03-23T05:59:48;97083.91;;;8.43;100.00
42601;BME280;28229;48.856;9.088;2024-03-23T06:02:14;97084.34;;;8.39;100.00
42601;BME280;28229;48.856;9.088;2024-03-23T06:04:40;97087.97;;;8.38;100.00
42601;BME280;28229;48.856;9.088;2024-03-23T06:07:07;97085.78;;;8.24;100.00
42601;BME280;28229;48.856;9.088;2024-03-23T06:09:35;97099.09;;;8.22;100.00
42601;BME280;28229;48.856;9.088;2024-03-23T06:12:02;97094.88;;;8.21;100.00
42601;BME280;28229;48.856;9.088;2024-03-23T06:14:28;97110.91;;;8.13;100.00
42601;BME280;28229;48.856;9.088;2024-03-23T06:16:54;97127.28;;;8.08;100.00
42601;BME280;28229;48.856;9.088;2024-03-23T06:19:20;97125.47;;;8.09;100.00
42601;BME280;28229;48.856;9.088;2024-03-23T06:21:46;97111.44;;;8.03;100.00
42601;BME280;28229;48.856;9.088;2024-03-23T06:24:12;97104.81;;;8.00;100.00
42601;BME280;28229;48.856;9.088;2024-03-23T06:26:38;97106.63;;;8.00;100.00
42601;BME280;28229;48.856;9.088;2024-03-23T06:29:04;97135.53;;;7.93;100.00
42601;BME280;28229;48.856;9.088;2024-03-23T06:31:31;97142.78;;;7.91;100.00
42601;BME280;28229;48.856;9.088;2024-03-23T06:33:57;97144.31;;;7.99;100.00
42601;BME280;28229;48.856;9.088;2024-03-23T06:36:23;97157.72;;;7.91;100.00
42601;BME280;28229;48.856;9.088;2024-03-23T06:38:50;97166.25;;;7.86;100.00
42601;BME280;28229;48.856;9.088;2024-03-23T06:41:16;97164.91;;;7.77;100.00
42601;BME280;28229;48.856;9.088;2024-03-23T06:43:43;97167.31;;;7.78;100.00
42601;BME280;28229;48.856;9.088;2024-03-23T06:46:09;97172.38;;;7.73;100.00
42601;BME280;28229;48.856;9.088;2024-03-23T06:48:35;97181.13;;;7.67;100.00
42601;BME280;28229;48.856;9.088;2024-03-23T06:51:02;97192.81;;;7.65;100.00
42601;BME280;28229;48.856;9.088;2024-03-23T06:53:28;97197.25;;;7.64;100.00
42601;BME280;28229;48.856;9.088;2024-03-23T06:55:54;97201.34;;;7.60;100.00
42601;BME280;28229;48.856;9.088;2024-03-23T06:58:23;97223.22;;;7.66;100.00
42601;BME280;28229;48.856;9.088;2024-03-23T07:00:49;97225.47;;;7.62;100.00
42601;BME280;28229;48.856;9.088;2024-03-23T07:03:18;97229.84;;;7.68;100.00
42601;BME280;28229;48.856;9.088;2024-03-23T07:05:45;97242.25;;;7.79;100.00
42601;BME280;28229;48.856;9.088;2024-03-23T07:08:12;97253.06;;;7.83;100.00
42601;BME280;28229;48.856;9.088;2024-03-23T07:10:41;97249.50;;;7.77;100.00
42601;BME280;28229;48.856;9.088;2024-03-23T07:13:07;97258.59;;;7.75;100.00
42601;BME280;28229;48.856;9.088;2024-03-23T07:15:34;97274.28;;;7.75;100.00
42601;BME280;28229;48.856;9.088;2024-03-23T07:18:00;97279.56;;;7.68;100.00
42601;BME280;28229;48.856;9.088;2024-03-23T07:20:26;97281.81;;;7.65;100.00
42601;BME280;28229;48.856;9.088;2024-03-23T07:22:52;97279.06;;;7.59;100.00
42601;BME280;28229;48.856;9.088;2024-03-23T07:25:19;97274.69;;;7.53;100.00
42601;BME280;28229;48.856;9.088;2024-03-23T07:27:47;97270.03;;;7.55;100.00
42601;BME280;28229;48.856;9.088;2024-03-23T07:30:13;97277.47;;;7.58;100.00
42601;BME280;28229;48.856;9.088;2024-03-23T07:32:39;97272.84;;;7.54;100.00
42601;BME280;28229;48.856;9.088;2024-03-23T07:35:06;97279.13;;;7.53;100.00
42601;BME280;28229;48.856;9.088;2024-03-23T07:37:32;97291.81;;;7.49;99.06
42601;BME280;28229;48.856;9.088;2024-03-23T07:39:58;97312.22;;;7.40;99.60
42601;BME280;28229;48.856;9.088;2024-03-23T07:42:25;97323.47;;;7.41;100.00
42601;BME280;28229;48.856;9.088;2024-03-23T07:44:52;97326.31;;;7.39;99.79
42601;BME280;28229;48.856;9.088;2024-03-23T07:47:20;97328.72;;;7.41;100.00
42601;BME280;28229;48.856;9.088;2024-03-23T07:49:47;97338.44;;;7.34;100.00
42601;BME280;28229;48.856;9.088;2024-03-23T07:52:13;97350.91;;;7.32;100.00
42601;BME280;28229;48.856;9.088;2024-03-23T07:54:40;97359.34;;;7.34;100.00
42601;BME280;28229;48.856;9.088;2024-03-23T07:57:07;97366.44;;;7.27;100.00
42601;BME280;28229;48.856;9.088;2024-03-23T07:59:33;97364.22;;;7.23;100.00
42601;BME280;28229;48.856;9.088;2024-03-23T08:02:00;97361.69;;;7.10;100.00
42601;BME280;28229;48.856;9.088;2024-03-23T08:04:27;97358.63;;;7.20;100.00
42601;BME280;28229;48.856;9.088;2024-03-23T08:06:53;97352.97;;;7.23;100.00
42601;BME280;28229;48.856;9.088;2024-03-23T08:09:20;97357.81;;;7.19;100.00
42601;BME280;28229;48.856;9.088;2024-03-23T08:11:46;97372.75;;;7.12;100.00
42601;BME280;28229;48.856;9.088;2024-03-23T08:14:12;97383.81;;;7.14;100.00
42601;BME280;28229;48.856;9.088;2024-03-23T08:16:38;97402.31;;;7.13;100.00
42601;BME280;28229;48.856;9.088;2024-03-23T08:19:07;97410.75;;;7.21;100.00
42601;BME280;28229;48.856;9.088;2024-03-23T08:21:34;97423.50;;;7.43;100.00
42601;BME280;28229;48.856;9.088;2024-03-23T08:24:00;97410.53;;;7.61;99.64
42601;BME280;28229;48.856;9.088;2024-03-23T08:26:26;97406.47;;;7.66;96.02
42601;BME280;28229;48.856;9.088;2024-03-23T08:28:52;97399.56;;;7.46;94.03
42601;BME280;28229;48.856;9.088;2024-03-23T08:31:19;97398.88;;;7.26;94.20
42601;BME280;28229;48.856;9.088;2024-03-23T08:33:45;97433.81;;;7.38;95.61
42601;BME280;28229;48.856;9.088;2024-03-23T08:36:11;97442.56;;;7.63;95.67
42601;BME280;28229;48.856;9.088;2024-03-23T08:38:43;97451.38;;;7.69;95.43
42601;BME280;28229;48.856;9.088;2024-03-23T08:41:10;97456.22;;;7.66;94.00
42601;BME280;28229;48.856;9.088;2024-03-23T08:43:38;97464.38;;;7.51;91.04
42601;BME280;28229;48.856;9.088;2024-03-23T08:46:09;97464.75;;;7.54;92.31
42601;BME280;28229;48.856;9.088;2024-03-23T08:48:37;97471.28;;;7.32;91.42
42601;BME280;28229;48.856;9.088;2024-03-23T08:51:05;97478.22;;;7.06;93.02
42601;BME280;28229;48.856;9.088;2024-03-23T08:53:32;97463.34;;;7.00;94.21
42601;BME280;28229;48.856;9.088;2024-03-23T08:55:59;97457.56;;;6.71;96.84
42601;BME280;28229;48.856;9.088;2024-03-23T08:58:27;97459.97;;;6.79;98.16
42601;BME280;28229;48.856;9.088;2024-03-23T09:00:55;97462.16;;;6.82;97.55
42601;BME280;28229;48.856;9.088;2024-03-23T09:03:23;97468.63;;;6.86;98.80
42601;BME280;28229;48.856;9.088;2024-03-23T09:05:50;97493.13;;;6.99;98.21
42601;BME280;28229;48.856;9.088;2024-03-23T09:08:17;97494.28;;;7.16;96.00
42601;BME280;28229;48.856;9.088;2024-03-23T09:10:44;97503.88;;;7.36;97.52
42601;BME280;28229;48.856;9.088;2024-03-23T09:13:10;97486.88;;;7.58;92.01
42601;BME280;28229;48.856;9.088;2024-03-23T09:15:44;97498.97;;;7.59;88.38
42601;BME280;28229;48.856;9.088;2024-03-23T09:18:11;97512.69;;;7.48;87.76
42601;BME280;28229;48.856;9.088;2024-03-23T09:20:37;97524.66;;;7.76;89.14
42601;BME280;28229;48.856;9.088;2024-03-23T09:23:03;97532.69;;;7.81;89.07
42601;BME280;28229;48.856;9.088;2024-03-23T09:25:30;97539.13;;;7.85;84.79
42601;BME280;28229;48.856;9.088;2024-03-23T09:27:56;97540.25;;;8.03;85.63
42601;BME280;28229;48.856;9.088;2024-03-23T09:30:22;97536.94;;;8.14;85.38
42601;BME280;28229;48.856;9.088;2024-03-23T09:32:48;97527.63;;;8.18;85.41
42601;BME280;28229;48.856;9.088;2024-03-23T09:35:14;97529.66;;;8.16;85.53
42601;BME280;28229;48.856;9.088;2024-03-23T09:37:41;97527.91;;;8.10;84.00
42601;BME280;28229;48.856;9.088;2024-03-23T09:40:10;97530.91;;;8.13;85.40
42601;BME280;28229;48.856;9.088;2024-03-23T09:42:40;97537.44;;;8.29;84.83
42601;BME280;28229;48.856;9.088;2024-03-23T09:45:06;97529.59;;;8.29;84.09
42601;BME280;28229;48.856;9.088;2024-03-23T09:47:35;97526.47;;;8.14;82.87
42601;BME280;28229;48.856;9.088;2024-03-23T09:50:01;97525.28;;;8.10;83.78
42601;BME280;28229;48.856;9.088;2024-03-23T09:52:27;97521.25;;;8.07;83.28
42601;BME280;28229;48.856;9.088;2024-03-23T09:54:54;97520.38;;;8.20;86.05
42601;BME280;28229;48.856;9.088;2024-03-23T09:57:20;97522.66;;;8.42;86.27
42601;BME280;28229;48.856;9.088;2024-03-23T09:59:46;97528.78;;;8.61;84.89
42601;BME280;28229;48.856;9.088;2024-03-23T10:02:12;97534.13;;;8.72;81.03
42601;BME280;28229;48.856;9.088;2024-03-23T10:04:43;97524.75;;;8.83;81.96
42601;BME280;28229;48.856;9.088;2024-03-23T10:07:18;97525.59;;;9.21;81.18
42601;BME280;28229;48.856;9.088;2024-03-23T10:09:45;97511.59;;;9.45;79.18
42601;BME280;28229;48.856;9.088;2024-03-23T10:12:13;97520.84;;;9.66;78.08
42601;BME280;28229;48.856;9.088;2024-03-23T10:14:40;97520.16;;;9.71;75.10
42601;BME280;28229;48.856;9.088;2024-03-23T10:17:20;97510.69;;;9.70;75.55
42601;BME280;28229;48.856;9.088;2024-03-23T10:19:51;97505.59;;;9.57;69.48
42601;BME280;28229;48.856;9.088;2024-03-23T10:22:22;97506.72;;;9.49;67.01
42601;BME280;28229;48.856;9.088;2024-03-23T10:24:50;97497.78;;;9.50;68.98
42601;BME280;28229;48.856;9.088;2024-03-23T10:27:18;97513.03;;;9.60;70.12
42601;BME280;28229;48.856;9.088;2024-03-23T10:29:48;97495.66;;;9.59;66.71
42601;BME280;28229;48.856;9.088;2024-03-23T10:32:16;97505.19;;;9.41;65.38
42601;BME280;28229;48.856;9.088;2024-03-23T10:34:43;97500.59;;;9.37;67.10
42601;BME280;28229;48.856;9.088;2024-03-23T10:37:09;97515.25;;;9.26;67.95
42601;BME280;28229;48.856;9.088;2024-03-23T10:39:38;97534.19;;;9.09;68.88
42601;BME280;28229;48.856;9.088;2024-03-23T10:42:08;97544.78;;;8.52;71.45
42601;BME280;28229;48.856;9.088;2024-03-23T10:44:36;97578.59;;;7.90;74.69
42601;BME280;28229;48.856;9.088;2024-03-23T10:47:03;97586.63;;;7.23;79.75
42601;BME280;28229;48.856;9.088;2024-03-23T10:49:32;97591.06;;;6.63;80.38
42601;BME280;28229;48.856;9.088;2024-03-23T10:51:59;97606.53;;;6.38;84.54
42601;BME280;28229;48.856;9.088;2024-03-23T10:54:26;97621.72;;;6.01;88.78
42601;BME280;28229;48.856;9.088;2024-03-23T10:59:31;97642.63;;;5.38;95.47
42601;BME280;28229;48.856;9.088;2024-03-23T11:01:58;97638.56;;;5.28;96.30
42601;BME280;28229;48.856;9.088;2024-03-23T11:04:32;97613.19;;;5.15;98.18
42601;BME280;28229;48.856;9.088;2024-03-23T11:06:59;97604.66;;;5.28;98.00
42601;BME280;28229;48.856;9.088;2024-03-23T11:12:24;97586.91;;;5.52;98.92
42601;BME280;28229;48.856;9.088;2024-03-23T11:15:03;97575.72;;;5.58;98.89
42601;BME280;28229;48.856;9.088;2024-03-23T11:17:30;97575.53;;;5.66;99.45
42601;BME280;28229;48.856;9.088;2024-03-23T11:20:05;97571.38;;;5.79;98.11
42601;BME280;28229;48.856;9.088;2024-03-23T11:25:18;97567.31;;;6.24;100.00
42601;BME280;28229;48.856;9.088;2024-03-23T11:27:45;97572.56;;;6.44;97.87
42601;BME280;28229;48.856;9.088;2024-03-23T11:30:12;97570.78;;;6.65;96.00
42601;BME280;28229;48.856;9.088;2024-03-23T11:32:39;97577.81;;;6.91;97.93
42601;BME280;28229;48.856;9.088;2024-03-23T11:35:06;97567.13;;;7.19;95.78
42601;BME280;28229;48.856;9.088;2024-03-23T11:37:32;97564.88;;;7.30;92.38
42601;BME280;28229;48.856;9.088;2024-03-23T11:40:19;97563.06;;;7.23;91.53
42601;BME280;28229;48.856;9.088;2024-03-23T11:42:45;97561.03;;;7.32;90.53
42601;BME280;28229;48.856;9.088;2024-03-23T11:45:12;97556.22;;;7.36;89.36
42601;BME280;28229;48.856;9.088;2024-03-23T11:47:38;97561.44;;;7.36;88.35
42601;BME280;28229;48.856;9.088;2024-03-23T11:50:05;97556.59;;;7.46;88.90
42601;BME280;28229;48.856;9.088;2024-03-23T11:52:31;97557.38;;;7.53;87.65
42601;BME280;28229;48.856;9.088;2024-03-23T11:55:05;97564.16;;;7.68;88.51
42601;BME280;28229;48.856;9.088;2024-03-23T11:57:36;97561.94;;;7.65;83.47
42601;BME280;28229;48.856;9.088;2024-03-23T12:00:20;97562.53;;;7.73;83.26
42601;BME280;28229;48.856;9.088;2024-03-23T12:02:46;97553.47;;;7.76;78.49
42601;BME280;28229;48.856;9.088;2024-03-23T12:05:16;97555.31;;;7.69;73.42
42601;BME280;28229;48.856;9.088;2024-03-23T12:07:42;97548.84;;;7.65;73.56
42601;BME280;28229;48.856;9.088;2024-03-23T12:10:09;97548.63;;;7.73;72.98
42601;BME280;28229;48.856;9.088;2024-03-23T12:12:35;97540.28;;;7.89;69.79
42601;BME280;28229;48.856;9.088;2024-03-23T12:15:06;97536.59;;;8.04;71.22
42601;BME280;28229;48.856;9.088;2024-03-23T12:17:34;97538.03;;;8.31;70.17
42601;BME280;28229;48.856;9.088;2024-03-23T12:20:01;97528.22;;;8.52;68.92
42601;BME280;28229;48.856;9.088;2024-03-23T12:22:27;97522.91;;;8.65;68.15
42601;BME280;28229;48.856;9.088;2024-03-23T12:24:55;97545.56;;;8.78;68.53
42601;BME280;28229;48.856;9.088;2024-03-23T12:27:22;97539.28;;;9.04;66.49
42601;BME280;28229;48.856;9.088;2024-03-23T12:29:49;97533.94;;;9.36;68.00
42601;BME280;28229;48.856;9.088;2024-03-23T12:32:15;97522.41;;;9.19;65.51
42601;BME280;28229;48.856;9.088;2024-03-23T12:34:42;97537.16;;;8.94;66.69
42601;BME280;28229;48.856;9.088;2024-03-23T12:37:08;97524.34;;;8.86;66.12
42601;BME280;28229;48.856;9.088;2024-03-23T12:39:35;97524.53;;;8.85;66.05
42601;BME280;28229;48.856;9.088;2024-03-23T12:42:02;97539.53;;;8.77;66.29
42601;BME280;28229;48.856;9.088;2024-03-23T12:44:29;97518.59;;;8.71;65.60
42601;BME280;28229;48.856;9.088;2024-03-23T12:46:55;97531.50;;;8.47;65.44
42601;BME280;28229;48.856;9.088;2024-03-23T12:49:21;97530.25;;;8.50;66.25
42601;BME280;28229;48.856;9.088;2024-03-23T12:51:56;97538.63;;;8.65;66.51
42601;BME280;28229;48.856;9.088;2024-03-23T12:54:23;97529.22;;;9.01;66.55
42601;BME280;28229;48.856;9.088;2024-03-23T12:56:50;97527.50;;;9.50;68.16
42601;BME280;28229;48.856;9.088;2024-03-23T12:59:16;97520.50;;;9.63;64.58
42601;BME280;28229;48.856;9.088;2024-03-23T13:01:45;97521.59;;;9.85;65.25
42601;BME280;28229;48.856;9.088;2024-03-23T13:04:11;97500.63;;;9.67;62.08
42601;BME280;28229;48.856;9.088;2024-03-23T13:06:37;97515.16;;;9.51;62.69
42601;BME280;28229;48.856;9.088;2024-03-23T13:09:04;97522.19;;;9.39;61.80
42601;BME280;28229;48.856;9.088;2024-03-23T13:11:31;97511.59;;;9.08;59.10
42601;BME280;28229;48.856;9.088;2024-03-23T13:13:57;97511.47;;;9.22;60.06
42601;BME280;28229;48.856;9.088;2024-03-23T13:16:23;97517.00;;;9.32;61.08
42601;BME280;28229;48.856;9.088;2024-03-23T13:18:50;97506.13;;;9.28;60.46
42601;BME280;28229;48.856;9.088;2024-03-23T13:21:16;97496.84;;;9.63;59.33
42601;BME280;28229;48.856;9.088;2024-03-23T13:23:45;97486.50;;;9.80;60.69
42601;BME280;28229;48.856;9.088;2024-03-23T13:26:14;97482.53;;;9.77;59.53
42601;BME280;28229;48.856;9.088;2024-03-23T13:28:40;97468.75;;;9.94;58.10
42601;BME280;28229;48.856;9.088;2024-03-23T13:31:07;97465.72;;;10.20;56.38
42601;BME280;28229;48.856;9.088;2024-03-23T13:33:34;97449.56;;;10.47;55.16
42601;BME280;28229;48.856;9.088;2024-03-23T13:36:00;97451.13;;;10.48;56.54
42601;BME280;28229;48.856;9.088;2024-03-23T13:38:28;97451.81;;;10.32;53.87
42601;BME280;28229;48.856;9.088;2024-03-23T13:41:00;97454.50;;;10.55;56.67
42601;BME280;28229;48.856;9.088;2024-03-23T13:43:27;97456.97;;;10.62;56.99
42601;BME280;28229;48.856;9.088;2024-03-23T13:45:57;97465.00;;;10.43;56.79
42601;BME280;28229;48.856;9.088;2024-03-23T13:48:24;97479.47;;;9.92;59.14
42601;BME280;28229;48.856;9.088;2024-03-23T13:51:03;97503.53;;;8.66;66.46
42601;BME280;28229;48.856;9.088;2024-03-23T13:53:32;97522.50;;;7.98;74.03
42601;BME280;28229;48.856;9.088;2024-03-23T13:55:58;97540.69;;;7.34;77.62
42601;BME280;28229;48.856;9.088;2024-03-23T13:58:24;97550.47;;;6.80;81.39
42601;BME280;28229;48.856;9.088;2024-03-23T14:00:56;97545.84;;;6.42;84.32
42601;BME280;28229;48.856;9.088;2024-03-23T14:03:23;97562.69;;;6.20;87.11
42601;BME280;28229;48.856;9.088;2024-03-23T14:05:49;97560.16;;;5.85;88.16
42601;BME280;28229;48.856;9.088;2024-03-23T14:08:15;97541.63;;;5.66;89.70